createdAt,value
2023-04-15T00:00:03.209Z,12.07
2023-04-15T00:02:31.348Z,11.27
2023-04-15T00:04:59.385Z,10.47
2023-04-15T00:07:27.372Z,8.90
2023-04-15T00:09:57.759Z,9.83
2023-04-15T00:12:28.204Z,10.57
2023-04-15T00:14:57.129Z,10.87
2023-04-15T00:17:25.204Z,14.43
2023-04-15T00:19:53.217Z,11.33
2023-04-15T00:22:21.578Z,14.17
2023-04-15T00:24:49.600Z,12.50
2023-04-15T00:27:17.576Z,11.73
2023-04-15T00:29:46.955Z,10.37
2023-04-15T00:32:15.437Z,10.87
2023-04-15T00:34:43.684Z,13.23
2023-04-15T00:37:11.785Z,12.53
2023-04-15T00:39:40.818Z,12.00
2023-04-15T00:42:09.177Z,16.07
2023-04-15T00:44:37.114Z,15.37
2023-04-15T00:47:07.896Z,12.20
2023-04-15T00:49:36.159Z,13.20
2023-04-15T00:52:04.389Z,14.83
2023-04-15T00:54:32.416Z,11.83
2023-04-15T00:57:00.754Z,13.43
2023-04-15T00:59:30.083Z,14.63
2023-04-15T01:01:58.516Z,11.20
2023-04-15T01:04:28.207Z,11.93
2023-04-15T01:06:56.362Z,12.23
2023-04-15T01:09:24.364Z,12.53
2023-04-15T01:11:52.523Z,12.90
2023-04-15T01:14:20.836Z,12.17
2023-04-15T01:16:49.250Z,13.73
2023-04-15T01:19:18.782Z,13.50
2023-04-15T01:21:48.135Z,12.37
2023-04-15T01:24:19.500Z,14.30
2023-04-15T01:26:50.418Z,15.30
2023-04-15T01:29:18.818Z,16.33
2023-04-15T01:31:52.128Z,18.33
2023-04-15T01:34:20.943Z,18.30
2023-04-15T01:36:48.974Z,14.77
2023-04-15T01:39:17.017Z,14.63
2023-04-15T01:41:44.985Z,11.90
2023-04-15T01:44:14.336Z,12.57
2023-04-15T01:46:42.455Z,12.67
2023-04-15T01:49:10.678Z,13.77
2023-04-15T01:51:38.676Z,14.70
2023-04-15T01:54:06.601Z,13.97
2023-04-15T01:56:34.809Z,13.13
2023-04-15T01:59:03.795Z,11.13
2023-04-15T02:01:33.285Z,9.93
2023-04-15T02:04:01.466Z,12.07
2023-04-15T02:06:29.454Z,11.10
2023-04-15T02:08:57.461Z,14.53
2023-04-15T02:11:25.572Z,10.50
2023-04-15T02:13:53.713Z,10.23
2023-04-15T02:16:21.860Z,12.17
2023-04-15T02:18:52.124Z,9.03
2023-04-15T02:21:20.108Z,11.00
2023-04-15T02:23:48.430Z,8.90
2023-04-15T02:26:16.967Z,8.60
2023-04-15T02:28:44.901Z,8.63
2023-04-15T02:31:13.476Z,9.23
2023-04-15T02:33:41.783Z,9.03
2023-04-15T02:36:12.496Z,9.70
2023-04-15T02:38:42.433Z,8.97
2023-04-15T02:41:10.790Z,8.30
2023-04-15T02:43:40.031Z,9.50
2023-04-15T02:46:08.462Z,9.20
2023-04-15T02:48:36.948Z,9.67
2023-04-15T02:51:17.469Z,9.40
2023-04-15T02:53:45.630Z,10.17
2023-04-15T02:56:15.304Z,9.00
2023-04-15T02:58:44.741Z,8.93
2023-04-15T03:01:12.744Z,9.10
2023-04-15T03:03:41.074Z,8.00
2023-04-15T03:06:09.651Z,9.33
2023-04-15T03:08:38.947Z,7.60
2023-04-15T03:11:08.143Z,7.63
2023-04-15T03:13:36.326Z,8.17
2023-04-15T03:16:04.384Z,8.63
2023-04-15T03:18:32.593Z,8.23
2023-04-15T03:21:00.605Z,7.70
2023-04-15T03:23:28.611Z,8.07
2023-04-15T03:25:58.814Z,9.97
2023-04-15T03:28:26.801Z,7.23
2023-04-15T03:30:54.775Z,8.47
2023-04-15T03:33:22.888Z,7.57
2023-04-15T03:35:52.450Z,10.77
2023-04-15T03:38:20.680Z,8.20
2023-04-15T03:40:48.672Z,7.07
2023-04-15T03:43:17.971Z,7.87
2023-04-15T03:45:46.030Z,8.33
2023-04-15T03:48:17.938Z,7.47
2023-04-15T03:50:46.547Z,8.63
2023-04-15T03:53:14.534Z,10.57
2023-04-15T03:55:42.529Z,8.60
2023-04-15T03:58:12.899Z,8.87
2023-04-15T04:00:42.591Z,10.13
2023-04-15T04:03:11.012Z,7.90
2023-04-15T04:05:41.511Z,12.23
2023-04-15T04:08:09.493Z,9.17
2023-04-15T04:10:37.491Z,9.00
2023-04-15T04:13:05.444Z,8.77
2023-04-15T04:15:33.448Z,9.03
2023-04-15T04:18:02.894Z,11.10
2023-04-15T04:20:32.102Z,8.93
2023-04-15T04:23:00.137Z,12.57
2023-04-15T04:25:28.193Z,10.83
2023-04-15T04:27:56.231Z,13.23
2023-04-15T04:30:24.209Z,12.70
2023-04-15T04:32:52.213Z,13.40
2023-04-15T04:35:21.918Z,15.00
2023-04-15T04:37:49.912Z,13.33
2023-04-15T04:40:17.981Z,13.10
2023-04-15T04:42:46.043Z,15.23
2023-04-15T04:45:14.172Z,16.63
2023-04-15T04:47:42.115Z,15.23
2023-04-15T04:50:10.973Z,12.80
2023-04-15T04:52:40.604Z,12.37
2023-04-15T04:55:09.565Z,15.17
2023-04-15T04:57:37.813Z,14.73
2023-04-15T05:00:08.502Z,20.33
2023-04-15T05:02:36.915Z,15.27
2023-04-15T05:05:05.328Z,15.80
2023-04-15T05:07:33.360Z,18.57
2023-04-15T05:10:02.691Z,16.37
2023-04-15T05:12:30.732Z,14.33
2023-04-15T05:14:58.696Z,14.53
2023-04-15T05:17:26.675Z,14.23
2023-04-15T05:19:54.849Z,11.27
2023-04-15T05:22:23.039Z,17.93
2023-04-15T05:24:51.000Z,15.73
2023-04-15T05:27:20.535Z,15.80
2023-04-15T05:29:48.526Z,15.17
2023-04-15T05:32:16.898Z,13.43
2023-04-15T05:34:45.003Z,14.73
2023-04-15T05:37:12.984Z,14.97
2023-04-15T05:39:41.153Z,17.83
2023-04-15T05:42:09.131Z,14.33
2023-04-15T05:44:38.509Z,13.30
2023-04-15T05:47:07.264Z,14.57
2023-04-15T05:49:35.651Z,15.07
2023-04-15T05:52:03.891Z,15.50
2023-04-15T05:54:32.165Z,14.87
2023-04-15T05:57:00.115Z,15.73
2023-04-15T05:59:28.397Z,12.70
2023-04-15T06:01:58.065Z,15.37
2023-04-15T06:04:26.372Z,14.20
2023-04-15T06:06:54.494Z,14.77
2023-04-15T06:09:22.925Z,13.97
2023-04-15T06:11:50.877Z,15.27
2023-04-15T06:14:18.914Z,20.33
2023-04-15T06:16:47.054Z,18.87
2023-04-15T06:19:16.342Z,18.17
2023-04-15T06:21:44.754Z,14.90
2023-04-15T06:24:13.203Z,15.53
2023-04-15T06:26:41.186Z,16.23
2023-04-15T06:29:09.213Z,20.00
2023-04-15T06:31:37.429Z,15.40
2023-04-15T06:34:05.490Z,14.70
2023-04-15T06:36:35.041Z,15.40
2023-04-15T06:39:03.328Z,17.53
2023-04-15T06:41:31.618Z,14.50
2023-04-15T06:43:59.605Z,16.63
2023-04-15T06:46:27.773Z,13.13
2023-04-15T06:48:55.774Z,13.80
2023-04-15T06:51:26.172Z,10.20
2023-04-15T06:53:56.934Z,12.93
2023-04-15T06:56:25.360Z,10.90
2023-04-15T06:58:53.297Z,12.00
2023-04-15T07:01:21.447Z,13.27
2023-04-15T07:03:49.589Z,12.70
2023-04-15T07:06:17.601Z,14.93
2023-04-15T07:08:45.567Z,12.33
2023-04-15T07:11:15.120Z,14.70
2023-04-15T07:13:43.137Z,16.60
2023-04-15T07:16:11.098Z,11.10
2023-04-15T07:18:39.110Z,11.83
2023-04-15T07:21:07.263Z,12.10
2023-04-15T07:23:35.240Z,11.77
2023-04-15T07:26:03.748Z,9.37
2023-04-15T07:28:33.322Z,13.20
2023-04-15T07:31:01.395Z,13.53
2023-04-15T07:33:29.432Z,12.77
2023-04-15T07:35:57.415Z,12.67
2023-04-15T07:38:25.354Z,16.83
2023-04-15T07:40:54.320Z,14.83
2023-04-15T07:43:22.613Z,13.38
2023-04-15T07:45:51.972Z,13.38
2023-04-15T07:48:19.966Z,16.00
2023-04-15T07:50:48.025Z,15.95
2023-04-15T07:53:15.971Z,13.80
2023-04-15T07:55:43.911Z,14.82
2023-04-15T07:58:11.886Z,17.17
2023-04-15T08:00:40.194Z,17.98
2023-04-15T08:03:09.867Z,12.40
2023-04-15T08:05:38.017Z,13.98
2023-04-15T08:08:06.006Z,16.33
2023-04-15T08:10:34.042Z,12.45
2023-04-15T08:13:02.218Z,11.68
2023-04-15T08:15:30.212Z,11.65
2023-04-15T08:17:59.276Z,10.70
2023-04-15T08:20:28.663Z,12.37
2023-04-15T08:22:56.692Z,10.93
2023-04-15T08:25:24.677Z,11.43
2023-04-15T08:27:52.759Z,11.47
2023-04-15T08:30:21.664Z,10.30
2023-04-15T08:32:51.760Z,7.57
2023-04-15T08:35:19.767Z,9.90
2023-04-15T08:37:49.121Z,9.02
2023-04-15T08:40:17.214Z,7.53
2023-04-15T08:42:50.209Z,7.35
2023-04-15T08:45:19.640Z,8.23
2023-04-15T08:47:50.283Z,7.82
2023-04-15T08:50:19.765Z,8.63
2023-04-15T08:52:49.229Z,8.20
2023-04-15T08:55:17.722Z,7.45
2023-04-15T08:57:45.699Z,6.28
2023-04-15T09:00:15.138Z,10.05
2023-04-15T09:02:44.103Z,7.20
2023-04-15T09:05:12.279Z,9.75
2023-04-15T09:07:40.271Z,12.35
2023-04-15T09:10:10.824Z,14.48
2023-04-15T09:12:39.229Z,6.47
2023-04-15T09:15:09.519Z,9.20
2023-04-15T09:17:43.837Z,5.60
2023-04-15T09:20:14.060Z,4.10
2023-04-15T09:22:43.493Z,5.35
2023-04-15T09:25:29.530Z,6.95
2023-04-15T09:27:59.311Z,3.45
2023-04-15T09:30:28.608Z,4.60
2023-04-15T09:32:58.100Z,4.28
2023-04-15T09:35:28.515Z,8.77
2023-04-15T09:38:04.207Z,4.45
2023-04-15T09:40:38.729Z,9.68
2023-04-15T09:43:07.638Z,6.65
2023-04-15T09:45:37.164Z,5.07
2023-04-15T09:48:18.048Z,3.60
2023-04-15T09:50:46.180Z,3.53
2023-04-15T09:53:19.164Z,3.60
2023-04-15T09:55:51.959Z,4.13
2023-04-15T09:58:20.684Z,4.78
2023-04-15T10:00:50.408Z,4.10
2023-04-15T10:03:22.740Z,6.07
2023-04-15T10:05:52.702Z,4.35
2023-04-15T10:08:22.442Z,4.30
2023-04-15T10:10:52.879Z,4.07
2023-04-15T10:13:23.738Z,6.13
2023-04-15T10:15:53.567Z,4.07
2023-04-15T10:18:24.740Z,4.05
2023-04-15T10:20:53.511Z,4.68
2023-04-15T10:23:21.967Z,4.40
2023-04-15T10:25:53.820Z,5.25
2023-04-15T10:28:23.619Z,4.18
2023-04-15T10:30:52.135Z,4.40
2023-04-15T10:33:22.923Z,4.13
2023-04-15T10:35:51.852Z,4.78
2023-04-15T10:38:37.436Z,6.57
2023-04-15T10:41:21.754Z,5.38
2023-04-15T10:43:53.065Z,4.63
2023-04-15T10:46:23.983Z,4.68
2023-04-15T10:48:53.276Z,4.45
2023-04-15T10:51:32.750Z,4.63
2023-04-15T10:54:01.552Z,5.90
2023-04-15T10:56:32.075Z,4.43
2023-04-15T10:59:03.058Z,4.50
2023-04-15T11:01:54.666Z,4.75
2023-04-15T11:04:53.284Z,4.30
2023-04-15T11:07:36.247Z,4.78
2023-04-15T11:10:04.946Z,4.50
2023-04-15T11:12:38.066Z,4.78
2023-04-15T11:15:30.360Z,4.28
2023-04-15T11:17:58.942Z,4.35
2023-04-15T11:20:27.533Z,5.93
2023-04-15T11:23:13.874Z,6.03
2023-04-15T11:25:44.156Z,4.60
2023-04-15T11:28:14.481Z,4.20
2023-04-15T11:30:43.792Z,4.40
2023-04-15T11:33:14.067Z,4.10
2023-04-15T11:35:43.073Z,4.43
2023-04-15T11:38:12.987Z,4.93
2023-04-15T11:40:43.267Z,4.75
2023-04-15T11:43:15.884Z,6.00
2023-04-15T11:45:53.293Z,5.65
2023-04-15T11:48:23.567Z,5.70
2023-04-15T11:50:56.104Z,5.80
2023-04-15T11:53:25.128Z,6.35
2023-04-15T11:55:54.935Z,7.68
2023-04-15T11:58:26.644Z,5.85
2023-04-15T12:00:56.289Z,5.43
2023-04-15T12:03:28.704Z,6.03
2023-04-15T12:06:12.771Z,5.90
2023-04-15T12:09:02.906Z,6.28
2023-04-15T12:11:42.580Z,5.10
2023-04-15T12:14:15.023Z,5.47
2023-04-15T12:16:48.597Z,5.18
2023-04-15T12:19:19.808Z,5.22
2023-04-15T12:21:49.017Z,6.07
2023-04-15T12:24:21.096Z,7.32
2023-04-15T12:26:50.674Z,6.32
2023-04-15T12:29:21.181Z,7.20
2023-04-15T12:31:53.650Z,9.18
2023-04-15T12:34:29.532Z,7.40
2023-04-15T12:36:58.958Z,8.20
2023-04-15T12:39:30.492Z,10.07
2023-04-15T12:41:59.392Z,7.25
2023-04-15T12:44:29.519Z,9.27
2023-04-15T12:46:57.889Z,7.20
2023-04-15T12:49:26.716Z,8.55
2023-04-15T12:51:56.907Z,8.70
2023-04-15T12:54:25.015Z,7.93
2023-04-15T12:56:53.158Z,7.00
2023-04-15T12:59:21.655Z,6.47
2023-04-15T13:01:52.218Z,6.28
2023-04-15T13:04:21.901Z,6.88
2023-04-15T13:06:50.137Z,6.97
2023-04-15T13:09:18.279Z,5.25
2023-04-15T13:11:46.359Z,5.97
2023-04-15T13:14:14.354Z,6.18
2023-04-15T13:16:42.426Z,4.97
2023-04-15T13:19:11.705Z,5.43
2023-04-15T13:21:39.728Z,6.65
2023-04-15T13:24:08.155Z,5.78
2023-04-15T13:26:37.803Z,5.47
2023-04-15T13:29:05.844Z,5.70
2023-04-15T13:31:33.834Z,7.10
2023-04-15T13:34:01.886Z,6.20
2023-04-15T13:36:31.369Z,6.28
2023-04-15T13:38:59.982Z,6.68
2023-04-15T13:41:28.009Z,5.50
2023-04-15T13:43:55.955Z,5.70
2023-04-15T13:46:23.925Z,6.25
2023-04-15T13:48:51.918Z,8.60
2023-04-15T13:51:19.927Z,6.22
2023-04-15T13:53:49.252Z,5.85
2023-04-15T13:56:17.212Z,5.15
2023-04-15T13:58:45.180Z,5.20
2023-04-15T14:01:13.270Z,6.32
2023-04-15T14:03:41.297Z,5.40
2023-04-15T14:06:09.367Z,4.63
2023-04-15T14:08:37.369Z,5.72
2023-04-15T14:11:07.734Z,6.28
2023-04-15T14:13:35.816Z,4.82
2023-04-15T14:16:03.839Z,6.05
2023-04-15T14:18:31.878Z,7.65
2023-04-15T14:20:59.995Z,5.28
2023-04-15T14:23:28.033Z,5.65
2023-04-15T14:25:56.346Z,5.90
2023-04-15T14:28:25.910Z,6.35
2023-04-15T14:30:53.938Z,5.90
2023-04-15T14:33:21.917Z,8.52
2023-04-15T14:35:51.176Z,5.50
2023-04-15T14:38:19.172Z,6.38
2023-04-15T14:40:47.202Z,5.20
2023-04-15T14:43:15.364Z,5.22
2023-04-15T14:45:45.572Z,4.65
2023-04-15T14:48:13.838Z,4.50
2023-04-15T14:50:42.050Z,4.75
2023-04-15T14:53:10.126Z,4.80
2023-04-15T14:55:38.121Z,4.85
2023-04-15T14:58:08.278Z,6.43
2023-04-15T15:00:39.247Z,6.13
2023-04-15T15:03:12.898Z,5.00
2023-04-15T15:05:41.568Z,6.63
2023-04-15T15:08:10.204Z,5.05
2023-04-15T15:10:48.391Z,4.80
2023-04-15T15:13:18.475Z,5.00
2023-04-15T15:15:46.971Z,4.82
2023-04-15T15:18:16.785Z,8.00
2023-04-15T15:20:44.808Z,11.43
2023-04-15T15:23:12.766Z,8.80
2023-04-15T15:25:40.875Z,5.93
2023-04-15T15:28:09.120Z,5.38
2023-04-15T15:30:37.195Z,5.47
2023-04-15T15:33:05.240Z,6.80
2023-04-15T15:35:34.949Z,9.00
2023-04-15T15:38:03.405Z,9.47
2023-04-15T15:40:31.415Z,10.60
2023-04-15T15:42:59.370Z,9.10
2023-04-15T15:45:27.363Z,7.82
2023-04-15T15:47:57.113Z,7.97
2023-04-15T15:50:25.322Z,13.33
2023-04-15T15:52:55.141Z,12.55
2023-04-15T15:55:25.253Z,11.38
2023-04-15T15:57:53.252Z,9.70
2023-04-15T16:00:21.897Z,9.57
2023-04-15T16:03:05.774Z,7.68
2023-04-15T16:05:35.118Z,9.35
2023-04-15T16:08:04.773Z,8.27
2023-04-15T16:10:32.954Z,9.60
2023-04-15T16:13:00.970Z,7.47
2023-04-15T16:15:28.907Z,8.77
2023-04-15T16:17:56.900Z,6.03
2023-04-15T16:20:25.050Z,5.45
2023-04-15T16:22:53.225Z,5.85
2023-04-15T16:25:22.681Z,6.07
2023-04-15T16:28:01.432Z,5.85
2023-04-15T16:30:31.520Z,6.75
2023-04-15T16:32:59.550Z,6.78
2023-04-15T16:35:27.573Z,7.78
2023-04-15T16:37:55.622Z,9.23
2023-04-15T16:40:25.179Z,9.60
2023-04-15T16:42:53.650Z,12.05
2023-04-15T16:45:21.625Z,11.55
2023-04-15T16:47:49.730Z,12.67
2023-04-15T16:50:17.909Z,13.18
2023-04-15T16:52:45.865Z,13.50
2023-04-15T16:55:13.863Z,12.88
2023-04-15T16:58:01.851Z,15.65
2023-04-15T17:00:31.585Z,13.27
2023-04-15T17:03:00.075Z,10.40
2023-04-15T17:05:28.310Z,13.52
2023-04-15T17:07:56.413Z,10.57
2023-04-15T17:10:24.609Z,9.55
2023-04-15T17:12:54.322Z,9.27
2023-04-15T17:15:22.351Z,11.63
2023-04-15T17:17:50.560Z,7.87
2023-04-15T17:20:18.726Z,9.73
2023-04-15T17:22:46.894Z,8.27
2023-04-15T17:25:15.249Z,9.03
2023-04-15T17:27:43.238Z,10.20
2023-04-15T17:30:13.003Z,11.60
2023-04-15T17:32:41.143Z,11.20
2023-04-15T17:35:09.949Z,10.30
2023-04-15T17:37:38.746Z,9.47
2023-04-15T17:40:08.736Z,8.73
2023-04-15T17:42:37.153Z,15.50
2023-04-15T17:45:05.726Z,13.33
2023-04-15T17:47:35.139Z,12.17
2023-04-15T17:50:03.186Z,10.00
2023-04-15T17:52:31.165Z,11.43
2023-04-15T17:54:59.118Z,11.07
2023-04-15T17:57:27.128Z,10.23
2023-04-15T17:59:55.158Z,15.90
2023-04-15T18:02:23.314Z,22.40
2023-04-15T18:04:53.033Z,20.53
2023-04-15T18:07:21.198Z,19.80
2023-04-15T18:09:50.553Z,15.23
2023-04-15T18:12:18.599Z,16.03
2023-04-15T18:14:46.665Z,16.67
2023-04-15T18:17:14.839Z,13.23
2023-04-15T18:19:43.524Z,13.27
2023-04-15T18:22:13.046Z,12.20
2023-04-15T18:24:41.009Z,13.73
2023-04-15T18:27:09.029Z,12.23
2023-04-15T18:29:37.255Z,11.50
2023-04-15T18:32:05.535Z,12.57
2023-04-15T18:34:33.556Z,10.87
2023-04-15T18:37:02.137Z,13.07
2023-04-15T18:39:31.848Z,13.17
2023-04-15T18:41:59.834Z,15.37
2023-04-15T18:44:28.414Z,11.57
2023-04-15T18:46:56.453Z,12.20
2023-04-15T18:49:24.485Z,11.13
2023-04-15T18:51:52.441Z,12.73
2023-04-15T18:54:20.465Z,11.27
2023-04-15T18:56:49.938Z,11.70
2023-04-15T18:59:29.056Z,15.73
2023-04-15T19:01:59.296Z,19.17
2023-04-15T19:04:28.823Z,16.60
2023-04-15T19:06:57.232Z,20.30
2023-04-15T19:09:25.283Z,20.90
2023-04-15T19:11:54.686Z,20.43
2023-04-15T19:14:22.913Z,18.23
2023-04-15T19:16:50.933Z,20.50
2023-04-15T19:19:19.033Z,17.63
2023-04-15T19:21:49.711Z,21.00
2023-04-15T19:24:18.331Z,21.33
2023-04-15T19:26:49.523Z,22.80
2023-04-15T19:29:19.023Z,26.30
2023-04-15T19:31:46.999Z,22.03
2023-04-15T19:34:14.954Z,21.63
2023-04-15T19:36:43.306Z,27.03
2023-04-15T19:39:11.422Z,22.57
2023-04-15T19:41:39.768Z,26.53
2023-04-15T19:44:07.785Z,20.63
2023-04-15T19:46:37.227Z,28.40
2023-04-15T19:49:05.663Z,26.57
2023-04-15T19:51:33.914Z,22.50
2023-04-15T19:54:01.918Z,21.23
2023-04-15T19:56:31.730Z,22.90
2023-04-15T19:59:02.025Z,24.90
2023-04-15T20:01:30.229Z,28.03
2023-04-15T20:04:00.232Z,27.23
2023-04-15T20:06:28.511Z,26.73
2023-04-15T20:08:56.572Z,26.90
2023-04-15T20:12:45.887Z,30.07
2023-04-15T20:14:17.658Z,28.27
2023-04-15T20:16:45.744Z,29.43
2023-04-15T20:19:15.114Z,29.97
2023-04-15T20:21:43.112Z,31.57
2023-04-15T20:24:11.329Z,29.80
2023-04-15T20:26:39.326Z,30.50
2023-04-15T20:29:07.689Z,31.20
2023-04-15T20:31:36.242Z,32.13
2023-04-15T20:34:04.311Z,31.27
2023-04-15T20:36:33.675Z,32.53
2023-04-15T20:39:01.772Z,36.07
2023-04-15T20:41:29.836Z,37.77
2023-04-15T20:43:57.828Z,31.03
2023-04-15T20:46:27.618Z,36.83
2023-04-15T20:48:56.278Z,34.63
2023-04-15T20:51:24.278Z,40.97
2023-04-15T20:53:53.614Z,39.50
2023-04-15T20:56:21.623Z,42.20
2023-04-15T20:58:49.622Z,44.17
2023-04-15T21:01:17.724Z,42.93
2023-04-15T21:03:45.939Z,43.97
2023-04-15T21:06:13.956Z,41.37
2023-04-15T21:08:41.943Z,46.57
2023-04-15T21:11:11.351Z,45.27
2023-04-15T21:13:39.426Z,46.80
2023-04-15T21:16:07.541Z,46.50
2023-04-15T21:18:35.540Z,51.37
2023-04-15T21:21:04.175Z,51.83
2023-04-15T21:23:35.903Z,51.17
2023-04-15T21:26:04.179Z,56.00
2023-04-15T21:28:34.024Z,46.93
2023-04-15T21:31:01.982Z,45.40
2023-04-15T21:33:29.995Z,42.80
2023-04-15T21:35:57.979Z,43.67
2023-04-15T21:38:26.002Z,42.40
2023-04-15T21:40:54.175Z,42.77
2023-04-15T21:43:22.983Z,41.53
2023-04-15T21:46:21.822Z,41.43
2023-04-15T21:48:40.450Z,45.23
2023-04-15T21:51:09.127Z,40.87
2023-04-15T21:53:37.088Z,41.83
2023-04-15T21:56:05.534Z,46.13
2023-04-15T21:58:33.672Z,41.40
2023-04-15T22:01:03.120Z,38.50
2023-04-15T22:03:33.740Z,43.50
2023-04-15T22:06:02.310Z,44.53
2023-04-15T22:08:33.611Z,39.30
2023-04-15T22:11:06.908Z,41.60
2023-04-15T22:13:35.082Z,39.67
2023-04-15T22:16:04.540Z,45.90
2023-04-15T22:18:32.498Z,40.63
2023-04-15T22:21:01.608Z,44.23
2023-04-15T22:23:29.584Z,40.33
2023-04-15T22:25:58.065Z,48.83
2023-04-15T22:28:26.003Z,44.00
2023-04-15T22:30:54.650Z,45.73
2023-04-15T22:33:24.019Z,46.40
2023-04-15T22:35:51.972Z,49.00
2023-04-15T22:38:19.947Z,44.73
2023-04-15T22:40:48.115Z,43.53
2023-04-15T22:43:16.060Z,47.80
2023-04-15T22:45:44.030Z,46.30
2023-04-15T22:48:11.998Z,48.33
2023-04-15T22:50:41.549Z,46.97
2023-04-15T22:53:09.485Z,46.67
2023-04-15T22:55:37.463Z,46.40
2023-04-15T22:58:05.581Z,43.03
2023-04-15T23:00:33.531Z,38.30
2023-04-15T23:03:02.763Z,38.87
2023-04-15T23:05:31.516Z,42.97
2023-04-15T23:08:00.989Z,47.90
2023-04-15T23:10:29.111Z,47.87
2023-04-15T23:12:57.114Z,48.50
2023-04-15T23:15:25.349Z,47.60
2023-04-15T23:17:53.339Z,50.47
2023-04-15T23:20:21.335Z,52.27
2023-04-15T23:22:49.274Z,53.13
2023-04-15T23:25:19.597Z,55.77
2023-04-15T23:27:47.582Z,51.93
2023-04-15T23:30:15.556Z,55.97
2023-04-15T23:32:43.635Z,53.80
2023-04-15T23:35:11.682Z,51.67
2023-04-15T23:37:39.701Z,51.10
2023-04-15T23:40:09.014Z,49.63
2023-04-15T23:42:38.336Z,48.90
2023-04-15T23:45:07.099Z,52.60
2023-04-15T23:47:35.075Z,47.93
2023-04-15T23:50:03.955Z,50.10
2023-04-15T23:52:31.911Z,50.37
2023-04-15T23:55:00.228Z,48.00
2023-04-15T23:57:28.272Z,42.57
2023-04-15T23:59:57.561Z,46.97
